Timeline UpdatesTrip UpdatesNews PostsPvt PostsTravel TipsAdmin PostsConv PostsFollowed PostsChat RequestsBlog PostsPNR Posts

Disclaimer
Search
 
 
Wed Jul 23, 2014 11:15:44 ISTHomeTrainsΣChainsAtlasPNRForumGalleryNewsFAQTripsMembersLoginFeedback
No Recent News for this Train
Other Trains in the News **new
Latest...
Short Origination from Manikpur from 15/4/14-19/5/14 and from 26/5/14-30/5/14 #1092793
Sun May 11, 2014 (12:45PM)
⇐ Return Journey: Train# 51189

51190/Allahabad Itarsi Passenger (UnReserved)

Sep 11 2013 (1:45PM)
Change Departure Station:
Change Arrival Station:
Post a Train Travel TipPost a Train Travel Tip **new
Post a Comment/Question/Picture/VideoPost a Comment/Question/Picture/Video
Pantry/Catering
✕ NO Pantry Car
✕ NO Catering
RSA - Rake Sharing
RSA with 51158 ET-BSL Passenger
Rake/Coach Composition
Loco
WDM 2A ET/KATNI Shed
News    PNR    Forum    Time-Table    Availability    Fare Chart    Map    Arr/Dep History    Trips    Gallery    ΣChains    X/O    Timeline    
Travel Time: 9h 10m    23 halts    Distance: 245 km    Avg Speed: 26 km/hr
Type: Passenger
Zone: CR/Central
Departs @ 06:20
Platform# 1
SMTWTFS
Jabalpur Junction/JBP 
Arrives @ 15:30
Platform# ???
SMTWTFS
Itarsi Junction/ET 

23 halts. 25 intermediate Stations between Jabalpur Junction and Itarsi Junction

Show ALL intermediate Stations  Show Old Time-Table

#CodeStation NameX/OArrivesAvgDepartsAvgHaltPFDay#KmSpeedElevZoneAddress
1ALDAllahabad Junction (10)  -19:00-91-366.219100mNCRAllahabad 211003, Uttar Pradesh
2NYNNaini Junction (4)  19:23-19:25-2m31-359.19098mNCRAllahabad, Uttar Pradesh
3LKJNLink Junction CabinXO  19:28-19:30-2m--1-354.63794mNCRAllahabad, Uttar Pradesh
4IDGJIradatganj (3)X  19:38-19:40-2m--1-349.75199mNCRAllahabad, Uttar Pradesh
5JSRJasra (2)XO  19:47-19:49-2m--1-343.75097mNCRJasra, Uttar Pradesh
6MFXMadaraha  19:56-19:58-2m--1-337.954103mNCRNational Highway 76, Uttar Pradesh
7LOGLohgara (2)XO  20:05-20:07-2m--1-331.660112mNCRLohgara, Uttar Pradesh
8SRJShankargarh (3)X  20:17-20:19-2m--1-321.758132mNCRShankargarh, Uttar Pradesh
9MJHRMajhiariX  20:29-20:31-2m--1-312.116145mNCRNational Highway 76, Uttar Pradesh
10BRGBargarhO  20:58-21:00-2m--1-304.920166mNCRBargarh, Uttar Pradesh
11KTDDKataiya DandiXO  21:17-21:19-2m--1-299.48168mNCRKataiya, Uttar Pradesh
12DBRDabhaura (2)X  22:33-22:35-2m--1-289.231201mNCRDabhaura, Uttar Pradesh
13PNHIPanhaiX  22:55-22:57-2m--1-278.832214mNCRManikpur, Uttar Pradesh
14MKPManikpur Junction (4)  23:20-23:30-10m11-266.743250mNCRManikpur, Uttar Pradesh
15MKDMarkundiO  23:52-23:53-1m--1-250.847270mWCRState Highway 11, Madhya Pradesh
16TKYRTikaria (2)  00:03-00:04-1m--2-242.956268mWCRMDR 11, Madhya Pradesh
17MJGMajhagawanXO  00:18-00:19-1m--2-229.838343mWCRMajhgawa, Madhya Pradesh
18CTHRChitahra  00:28-00:29-1m--2-224.056367mWCRMDR 11, Madhya Pradesh
19KTHAKhutahaX  00:37-00:38-1m--2-216.545332mWCRMDR 11, Madhya Pradesh
20JTWJaitwar (2)X  00:48-00:49-1m--2-209.140321mWCRJaitwar, Madhya Pradesh
21SAGMSagma (1)X  01:10-01:11-1m12-195.220337mWCRSatna, Madhya Pradesh
22STASatna Junction (3)X  01:30-01:40-10m12-189.077322mWCRSatna, Madhya Pradesh
23LGCELagargawan (2)X  01:49-01:50-1m--2-177.482319mWCRLagargawan, Madhya Pradesh
24UHRUnchhera (2)X  01:57-01:58-1m--2-167.878331mWCRUnchhera, Madhya Pradesh
25MYRMaihar (3)X  02:09-02:10-1m22-153.650353mWCRMaihar Railway Station, Madhya Pradesh
26BUUBhadanpur (2)  02:26-02:27-1m--2-140.263362mWCRNational Highway 7, Madhya Pradesh
27UDRAmdara (2)X  02:39-02:40-1m--2-127.553376mWCRNational Highway 34, Madhya Pradesh
28PKRDPakara Road (2)X  02:51-02:52-1m--2-117.849381mWCRPakara, Madhya Pradesh
29JKEJukehi (3)X  03:04-03:05-1m--2-108.056402mWCRJukehi, Madhya Pradesh
30PTWAPatwara (2)XO  03:14-03:15-1m--2-99.714398mWCRNational Highway 34 Distric Katni Madhya Pradesh, Madhya Pradesh
31KTEKatni Junction (6)O  03:55-04:05-10m--2-90.634387mWCRKatni, Madhya Pradesh
32MDRRMadhavnagar Road (2)  04:14-04:16-2m--2-85.560398mWCRMadhavnagar, Madhya Pradesh
33NWRNiwar (2)  04:24-04:25-1m--2-77.558412mWCRPipraundh, Madhya Pradesh
34SNRRSansarpur (2)  04:33-04:35-2m--2-69.752436mWCRNational Highway 7, Madhya Pradesh
35SBDSleemanabad Road (2)X  04:43-04:44-1m--2-62.857434mWCRSleemanabad, Madhya Pradesh
36DDCEDundi (2)X  04:54-04:55-1m--2-53.369415mWCRDundi, Madhya Pradesh
37SHRSihora Road (2)X  05:08-05:10-2m--2-38.461388mWCRJabalpur, Madhya Pradesh
38GSPRGosalpur (2)X  05:21-05:22-1m--2-27.339396mWCRJabalpur, Madhya Pradesh
39DOEDeori (2)X  05:38-05:39-1m--2-16.841392mWCRJabalpur, Madhya Pradesh
40ADTLAdhartal (2)O  05:52-05:53-1m--2-8.028393mWCRJabalpur, Madhya Pradesh
41JBP»Jabalpur Junction (4)»X  06:10-06:20-10m120.035416mWCRJabalpur, Madhya Pradesh
42MMLMadan Mahal (3)X  06:26-06:30-4m123.579428mWCRJabalpur, Madhya Pradesh
43BRGTBheraghat (2)  06:40-06:41-1m--216.672389mWCRBheraghat, Madhya Pradesh
44BHTNBhitoni (2)  06:52-06:53-1m--229.863377mWCRJabalpur, Madhya Pradesh
45BMRBikrampur (2)O  07:04-07:05-1m--241.431353mWCRBikrampur Dist Narsingpur., Madhya Pradesh
46SRIDShridham (3)XO  07:28-07:30-2m3253.261373mWCRShridham, Madhya Pradesh
47KKBKarak Bel (2)  07:45-07:46-1m--268.533375mWCRKarak Bel, Madhya Pradesh
48BELDBelkhera (2)  07:54-07:55-1m--272.930367mWCRState Highway 22, Madhya Pradesh
49GPCGhatpindrai (2)XO  08:06-08:07-1m--278.45366mWCRGhatpindra, Madhya Pradesh
50NUNarsinghpur (2)  09:23-09:25-2m2284.270365mWCRNarsimhapur, Madhya Pradesh
51KYKareli (2)  09:39-09:40-1m22100.650361mWCRKareli, Madhya Pradesh
52KFYKarapgaon (2)  09:50-09:52-2m--2108.958363mWCRNational Highway 26, Madhya Pradesh
53BNEBohani (2)  09:59-10:00-1m--2115.760361mWCRNarsinghpur, Madhya Pradesh
54GARGadarwara (2)X  10:13-10:14-1m22128.670352mWCRNarsinghpur, Madhya Pradesh
55SCKRSalichauka Road (2)X  10:26-10:27-1m--2142.568355mWCRGadarwara, Madhya Pradesh
56JHTJunehta (2)  10:36-10:38-2m--2152.648353mWCRState Highway 22, Madhya Pradesh
57BKHBankhedi (2)XO  10:46-10:47-1m--2159.020351mWCRBankheri, Madhya Pradesh
58PPIPipariya (3)X  11:45-11:50-5m32178.052338mWCRPiparia, Madhya Pradesh
59SXFSobhapur (2)  12:00-12:02-2m--2186.639338mWCRState Highway 22, Madhya Pradesh
60SGPSohagpur (2)X  12:16-12:17-1m--2195.750340mWCRSohagpur, Madhya Pradesh
61GMDGuramkhedi (2)  12:29-12:30-1m--2205.727337mWCRGuramkhedi, Madhya Pradesh
62BGTABagratawa (2)X  12:59-13:00-1m--2218.827338mWCRBagra Tawa, Madhya Pradesh
63SQLSontalai (2)XO  13:15-13:17-2m--2225.611329mWCRItarsi, Madhya Pradesh
64GROGurra (2)  14:05-14:07-2m--2234.68327mWCRItarsi, Madhya Pradesh
65ET•Itarsi Junction (7)•  15:30----2245.2-329mWCRItarsi 461111, Madhya Pradesh
Scroll to Top
Scroll to Bottom